Terminal Aerodrome Forecast
Issued by NWS Jackson, MS

Home | Current Version | Previous Version | Text Only | Print | Product List | Glossary On
Versions: 1 2 3 4 5 6 7 8 9 10 11 12 13 14 15 16 17 18 19 20 21 22 23
292
FTUS44 KJAN 161326 AAA
TAFHBG
TAF AMD
KHBG 161326Z 1613/1712 00000KT 1/4SM FG VV002
     FM161430 14003KT 4SM BR OVC007
     FM161600 15006KT P6SM VCSH SCT010 OVC015
     FM161900 17013G18KT P6SM BKN040 BKN250
     FM170000 16007KT P6SM SCT030 BKN100
     FM170700 17003KT 3SM BR OVC005=

USA.gov is the U.S. government's official web portal to all federal, state and local government web resources and services.